Time;durP1;ratioP1;P1;durP2;ratioP2;P2;SDS_P1;SDS_P2;PMS_P1;PMS_P2;Temp;Humidity;BMP_temperature;BMP_pressure;BME280_temperature;BME280_humidity;BME280_pressure;Samples;Min_cycle;Max_cycle;Signal;HPM_P1;HPM_P2
2022/07/16 00:01:38;;;;;;;0.30;0.22;;;;;;;;;;2063248;28;20508;-84
2022/07/16 00:02:57;;;;;;;0.20;0.20;;;;;;;;;;2057943;28;20035;-85
2022/07/16 00:04:16;;;;;;;0.28;0.20;;;;;;;;;;2055542;28;20022;-84
2022/07/16 00:05:36;;;;;;;0.20;0.20;;;;;;;;;;2052296;28;20054;-84
2022/07/16 00:06:55;;;;;;;0.25;0.25;;;;;;;;;;2053773;28;20514;-84
2022/07/16 00:08:14;;;;;;;2.00;0.30;;;;;;;;;;2060324;28;20031;-84
2022/07/16 00:09:34;;;;;;;0.47;0.20;;;;;;;;;;2056309;28;20027;-84
2022/07/16 00:10:52;;;;;;;0.30;0.25;;;;;;;;;;2058784;28;20465;-84
2022/07/16 00:12:11;;;;;;;0.52;0.17;;;;;;;;;;2052076;28;20039;-84
2022/07/16 00:13:30;;;;;;;0.40;0.20;;;;;;;;;;2052085;28;20023;-84
2022/07/16 00:14:49;;;;;;;0.30;0.30;;;;;;;;;;2061458;28;20039;-84
2022/07/16 00:16:08;;;;;;;0.15;0.15;;;;;;;;;;2055110;28;20023;-83
2022/07/16 00:17:27;;;;;;;0.20;0.20;;;;;;;;;;2051463;28;20034;-85
2022/07/16 00:20:24;;;;;;;0.55;0.30;;;;;;;;;;2063033;28;20026;-84
2022/07/16 00:21:43;;;;;;;0.20;0.20;;;;;;;;;;2063412;28;20030;-83
2022/07/16 00:23:02;;;;;;;0.82;0.20;;;;;;;;;;2057385;28;20520;-83
2022/07/16 00:24:24;;;;;;;0.63;0.20;;;;;;;;;;2053833;28;20023;-82
2022/07/16 00:25:44;;;;;;;0.68;0.20;;;;;;;;;;2062853;28;20105;-83
2022/07/16 00:27:03;;;;;;;0.35;0.20;;;;;;;;;;2055683;28;20046;-84
2022/07/16 00:28:21;;;;;;;1.67;0.43;;;;;;;;;;2056818;28;20031;-83
2022/07/16 00:29:40;;;;;;;0.20;0.20;;;;;;;;;;2059540;28;20038;-83
2022/07/16 00:30:59;;;;;;;0.40;0.38;;;;;;;;;;2062877;28;20034;-83
2022/07/16 00:32:18;;;;;;;0.10;0.10;;;;;;;;;;2057071;28;20031;-83
2022/07/16 00:33:38;;;;;;;0.40;0.20;;;;;;;;;;2050053;28;20044;-83
2022/07/16 00:34:57;;;;;;;1.38;0.30;;;;;;;;;;2059763;28;20023;-83
2022/07/16 00:36:16;;;;;;;0.20;0.10;;;;;;;;;;2057375;28;20027;-83
2022/07/16 00:37:35;;;;;;;1.65;0.20;;;;;;;;;;2059690;28;20034;-83
2022/07/16 00:38:53;;;;;;;1.60;0.40;;;;;;;;;;2054737;28;20109;-84
2022/07/16 00:40:12;;;;;;;1.80;0.25;;;;;;;;;;2058758;28;20030;-84
2022/07/16 00:41:31;;;;;;;0.20;0.15;;;;;;;;;;2061272;28;20055;-84
2022/07/16 00:42:50;;;;;;;1.50;0.25;;;;;;;;;;2061174;28;20042;-84
2022/07/16 00:44:10;;;;;;;0.40;0.30;;;;;;;;;;2057057;28;20027;-84
2022/07/16 00:45:29;;;;;;;2.00;0.20;;;;;;;;;;2059018;28;20101;-84
2022/07/16 00:46:49;;;;;;;1.38;0.20;;;;;;;;;;2063617;28;20563;-83
2022/07/16 00:48:09;;;;;;;0.57;0.17;;;;;;;;;;2065839;28;20030;-84
2022/07/16 00:49:28;;;;;;;0.65;0.25;;;;;;;;;;2057614;28;20044;-83
2022/07/16 00:50:46;;;;;;;0.30;0.30;;;;;;;;;;2059445;28;20492;-84
2022/07/16 00:52:05;;;;;;;0.55;0.25;;;;;;;;;;2064291;28;20038;-85
2022/07/16 00:53:27;;;;;;;0.60;0.20;;;;;;;;;;2057184;28;20030;-84
2022/07/16 00:54:46;;;;;;;0.30;0.20;;;;;;;;;;2052430;28;20524;-83
2022/07/16 00:56:10;;;;;;;0.20;0.20;;;;;;;;;;2061057;28;20503;-84
2022/07/16 00:57:29;;;;;;;0.20;0.17;;;;;;;;;;2066917;28;20022;-84
2022/07/16 00:58:49;;;;;;;0.10;0.10;;;;;;;;;;2057478;28;20053;-84
2022/07/16 01:00:08;;;;;;;0.68;0.30;;;;;;;;;;2057168;28;20030;-84
2022/07/16 01:01:27;;;;;;;0.40;0.20;;;;;;;;;;2066186;28;20093;-84
2022/07/16 01:02:46;;;;;;;0.32;0.20;;;;;;;;;;2064726;28;20135;-84
2022/07/16 01:04:06;;;;;;;0.50;0.10;;;;;;;;;;2056665;28;20589;-83
2022/07/16 01:05:25;;;;;;;0.10;0.10;;;;;;;;;;2062982;28;20026;-83
2022/07/16 01:06:45;;;;;;;0.30;0.20;;;;;;;;;;2064908;28;20018;-85
2022/07/16 01:08:04;;;;;;;0.30;0.13;;;;;;;;;;2065661;28;20027;-84
2022/07/16 01:09:23;;;;;;;2.33;0.20;;;;;;;;;;2058815;28;20070;-83
2022/07/16 01:10:43;;;;;;;0.25;0.25;;;;;;;;;;2054136;28;20034;-84
2022/07/16 01:12:02;;;;;;;0.22;0.22;;;;;;;;;;2063204;28;20042;-84
2022/07/16 01:13:21;;;;;;;0.10;0.10;;;;;;;;;;2056118;28;20109;-83
2022/07/16 01:14:41;;;;;;;0.45;0.20;;;;;;;;;;2059279;28;20034;-84
2022/07/16 01:16:01;;;;;;;0.17;0.17;;;;;;;;;;2060217;28;20030;-84
2022/07/16 01:17:20;;;;;;;0.20;0.20;;;;;;;;;;2057934;28;20035;-83
2022/07/16 01:18:40;;;;;;;0.38;0.20;;;;;;;;;;2061834;28;20022;-84
2022/07/16 01:19:59;;;;;;;0.40;0.20;;;;;;;;;;2067579;28;20030;-84
2022/07/16 01:21:18;;;;;;;0.30;0.20;;;;;;;;;;2066708;28;20050;-83
2022/07/16 01:22:37;;;;;;;1.30;0.20;;;;;;;;;;2059382;28;20034;-83
2022/07/16 01:23:56;;;;;;;0.10;0.10;;;;;;;;;;2055093;28;20509;-84
2022/07/16 01:25:15;;;;;;;0.65;0.20;;;;;;;;;;2054498;28;20026;-83
2022/07/16 01:26:34;;;;;;;0.20;0.20;;;;;;;;;;2062402;28;20038;-83
2022/07/16 01:27:53;;;;;;;0.20;0.20;;;;;;;;;;2065616;28;20038;-84
2022/07/16 01:29:11;;;;;;;0.30;0.30;;;;;;;;;;2048985;28;20043;-84
2022/07/16 01:30:30;;;;;;;0.20;0.10;;;;;;;;;;2047564;28;20027;-83
2022/07/16 01:31:49;;;;;;;0.20;0.20;;;;;;;;;;2057623;28;21056;-83
2022/07/16 01:33:23;;;;;;;0.22;0.10;;;;;;;;;;2057247;28;20030;-84
2022/07/16 01:34:41;;;;;;;0.20;0.20;;;;;;;;;;2055509;28;20035;-83
2022/07/16 01:36:02;;;;;;;0.17;0.17;;;;;;;;;;2057880;28;20022;-84
2022/07/16 01:37:21;;;;;;;0.32;0.20;;;;;;;;;;2055088;28;20046;-83
2022/07/16 01:38:46;;;;;;;0.82;0.17;;;;;;;;;;2055080;28;20023;-84
2022/07/16 01:40:05;;;;;;;0.20;0.20;;;;;;;;;;2061811;28;20061;-84
2022/07/16 01:41:24;;;;;;;0.30;0.10;;;;;;;;;;2055426;28;20027;-84
2022/07/16 01:42:44;;;;;;;0.70;0.20;;;;;;;;;;2052892;28;20504;-84
2022/07/16 01:44:02;;;;;;;0.65;0.20;;;;;;;;;;2047513;28;20035;-84
2022/07/16 01:45:22;;;;;;;0.28;0.20;;;;;;;;;;2055403;28;20026;-84
2022/07/16 01:46:40;;;;;;;0.38;0.30;;;;;;;;;;2059494;28;20404;-84
2022/07/16 01:47:59;;;;;;;0.10;0.10;;;;;;;;;;2065517;28;20026;-84
2022/07/16 01:49:19;;;;;;;0.30;0.25;;;;;;;;;;2058676;28;20101;-84
2022/07/16 01:50:40;;;;;;;0.20;0.10;;;;;;;;;;2056248;28;20035;-84
2022/07/16 01:52:10;;;;;;;1.17;0.20;;;;;;;;;;2057008;28;20039;-85
2022/07/16 01:53:29;;;;;;;1.00;0.20;;;;;;;;;;2059871;28;20022;-84
2022/07/16 01:54:53;;;;;;;0.40;0.20;;;;;;;;;;2066884;28;20030;-85
2022/07/16 01:56:11;;;;;;;1.10;0.10;;;;;;;;;;2055737;28;20031;-85
2022/07/16 01:57:30;;;;;;;0.77;0.20;;;;;;;;;;2058180;28;20031;-85
2022/07/16 01:58:51;;;;;;;0.20;0.20;;;;;;;;;;2050889;28;20050;-84
2022/07/16 02:00:10;;;;;;;0.22;0.20;;;;;;;;;;2052755;28;20067;-84
2022/07/16 02:01:29;;;;;;;0.20;0.20;;;;;;;;;;2054306;28;20022;-84
2022/07/16 02:02:50;;;;;;;0.50;0.30;;;;;;;;;;2063037;28;20496;-84
2022/07/16 02:04:12;;;;;;;0.70;0.30;;;;;;;;;;2056093;28;20054;-84
2022/07/16 02:05:31;;;;;;;0.70;0.40;;;;;;;;;;2054082;28;20709;-84
2022/07/16 02:06:50;;;;;;;1.75;0.30;;;;;;;;;;2054942;28;20031;-83
2022/07/16 02:08:09;;;;;;;0.50;0.47;;;;;;;;;;2060931;28;20027;-84
2022/07/16 02:09:28;;;;;;;0.32;0.20;;;;;;;;;;2056402;28;20026;-84
2022/07/16 02:10:47;;;;;;;0.20;0.20;;;;;;;;;;2060557;28;20031;-84
2022/07/16 02:12:06;;;;;;;0.20;0.20;;;;;;;;;;2056506;28;20042;-84
2022/07/16 02:13:25;;;;;;;0.20;0.20;;;;;;;;;;2057816;28;20035;-84
2022/07/16 02:14:44;;;;;;;0.10;0.10;;;;;;;;;;2051244;28;20035;-84
2022/07/16 02:16:03;;;;;;;0.10;0.10;;;;;;;;;;2061675;28;20025;-84
2022/07/16 02:17:23;;;;;;;0.52;0.45;;;;;;;;;;2058020;28;20026;-84
2022/07/16 02:18:42;;;;;;;0.20;0.20;;;;;;;;;;2060837;28;20022;-84
2022/07/16 02:20:02;;;;;;;2.38;0.40;;;;;;;;;;2056491;28;20027;-84
2022/07/16 02:21:21;;;;;;;0.60;0.20;;;;;;;;;;2053317;28;20461;-84
2022/07/16 02:22:40;;;;;;;0.20;0.20;;;;;;;;;;2062022;28;20074;-85
2022/07/16 02:23:59;;;;;;;0.15;0.10;;;;;;;;;;2058343;28;20030;-83
2022/07/16 02:25:18;;;;;;;0.17;0.17;;;;;;;;;;2062177;28;20038;-84
2022/07/16 02:26:40;;;;;;;0.45;0.20;;;;;;;;;;2063072;28;20038;-84
2022/07/16 02:28:08;;;;;;;0.38;0.17;;;;;;;;;;2059644;28;20464;-84
2022/07/16 02:29:27;;;;;;;1.70;0.20;;;;;;;;;;2063370;28;20034;-84
2022/07/16 02:30:50;;;;;;;0.38;0.20;;;;;;;;;;2056144;28;20043;-84
2022/07/16 02:32:09;;;;;;;0.73;0.20;;;;;;;;;;2059515;28;20031;-83
2022/07/16 02:33:30;;;;;;;0.70;0.30;;;;;;;;;;2055624;28;20035;-83
2022/07/16 02:34:49;;;;;;;0.45;0.20;;;;;;;;;;2059052;28;20057;-83
2022/07/16 02:36:15;;;;;;;0.60;0.20;;;;;;;;;;2054987;28;20054;-83
2022/07/16 02:37:34;;;;;;;0.20;0.20;;;;;;;;;;2054447;28;20031;-83
2022/07/16 02:38:52;;;;;;;0.20;0.20;;;;;;;;;;2053325;28;20031;-83
2022/07/16 02:40:11;;;;;;;0.20;0.20;;;;;;;;;;2056077;28;20300;-83
2022/07/16 02:41:30;;;;;;;0.10;0.10;;;;;;;;;;2062787;28;20508;-82
2022/07/16 02:42:49;;;;;;;0.20;0.20;;;;;;;;;;2057474;28;20101;-83
2022/07/16 02:44:08;;;;;;;0.57;0.20;;;;;;;;;;2063624;28;20030;-83
2022/07/16 02:45:27;;;;;;;0.77;0.20;;;;;;;;;;2055101;28;20070;-82
2022/07/16 02:46:45;;;;;;;0.30;0.20;;;;;;;;;;2059326;28;20058;-83
2022/07/16 02:48:05;;;;;;;0.40;0.20;;;;;;;;;;2059933;28;20030;-83
2022/07/16 02:49:24;;;;;;;0.70;0.25;;;;;;;;;;2061435;28;20018;-84
2022/07/16 02:50:43;;;;;;;0.85;0.30;;;;;;;;;;2063715;28;20062;-83
2022/07/16 02:52:02;;;;;;;0.20;0.20;;;;;;;;;;2059096;28;20474;-84
2022/07/16 02:53:21;;;;;;;0.30;0.30;;;;;;;;;;2061869;28;20034;-84
2022/07/16 02:54:40;;;;;;;0.43;0.32;;;;;;;;;;2055308;28;20117;-83
2022/07/16 02:55:59;;;;;;;0.40;0.10;;;;;;;;;;2058111;28;20035;-83
2022/07/16 02:57:18;;;;;;;1.75;0.10;;;;;;;;;;2055609;28;20026;-83
2022/07/16 02:58:36;;;;;;;0.60;0.10;;;;;;;;;;2049107;28;20035;-82
2022/07/16 02:59:55;;;;;;;0.10;0.10;;;;;;;;;;2061584;28;20113;-83
2022/07/16 03:01:14;;;;;;;0.25;0.10;;;;;;;;;;2064634;28;20102;-83
2022/07/16 03:02:36;;;;;;;0.20;0.10;;;;;;;;;;2063646;28;20105;-83
2022/07/16 03:03:54;;;;;;;0.20;0.20;;;;;;;;;;2065154;28;20045;-83
2022/07/16 03:05:16;;;;;;;0.13;0.13;;;;;;;;;;2057304;28;20116;-82
2022/07/16 03:06:35;;;;;;;0.17;0.17;;;;;;;;;;2058907;28;20042;-82
2022/07/16 03:07:54;;;;;;;0.08;0.08;;;;;;;;;;2064008;28;20026;-83
2022/07/16 03:09:13;;;;;;;0.20;0.20;;;;;;;;;;2064625;28;20031;-82
2022/07/16 03:10:32;;;;;;;0.17;0.10;;;;;;;;;;2057180;28;20038;-83
2022/07/16 03:11:51;;;;;;;1.48;0.10;;;;;;;;;;2060396;28;20066;-83
2022/07/16 03:13:10;;;;;;;0.20;0.20;;;;;;;;;;2055586;28;20057;-83
2022/07/16 03:14:29;;;;;;;0.20;0.20;;;;;;;;;;2059638;28;20035;-82
2022/07/16 03:15:48;;;;;;;0.10;0.10;;;;;;;;;;2056104;28;20023;-83
2022/07/16 03:17:07;;;;;;;0.10;0.10;;;;;;;;;;2056455;28;20064;-82
2022/07/16 03:18:25;;;;;;;0.30;0.10;;;;;;;;;;2055611;28;20054;-82
2022/07/16 03:19:44;;;;;;;0.43;0.13;;;;;;;;;;2062338;28;20492;-82
2022/07/16 03:21:03;;;;;;;0.95;0.15;;;;;;;;;;2057153;28;20047;-83
2022/07/16 03:22:22;;;;;;;0.75;0.40;;;;;;;;;;2053747;28;20019;-82
2022/07/16 03:23:41;;;;;;;0.15;0.10;;;;;;;;;;2062197;28;20038;-83
2022/07/16 03:25:00;;;;;;;0.20;0.17;;;;;;;;;;2056580;28;20043;-82
2022/07/16 03:26:19;;;;;;;0.28;0.28;;;;;;;;;;2058980;28;20428;-83
2022/07/16 03:27:38;;;;;;;0.13;0.13;;;;;;;;;;2062175;28;20034;-83
2022/07/16 03:28:57;;;;;;;0.60;0.30;;;;;;;;;;2057117;28;20571;-83
2022/07/16 03:30:17;;;;;;;1.08;0.30;;;;;;;;;;2052237;28;20105;-83
2022/07/16 03:31:36;;;;;;;0.43;0.20;;;;;;;;;;2057210;28;20034;-83
2022/07/16 03:32:56;;;;;;;0.80;0.22;;;;;;;;;;2052806;28;20035;-83
2022/07/16 03:34:16;;;;;;;0.20;0.10;;;;;;;;;;2054492;28;20043;-83
2022/07/16 03:35:35;;;;;;;0.20;0.10;;;;;;;;;;2051285;28;20058;-83
2022/07/16 03:36:54;;;;;;;1.02;0.10;;;;;;;;;;2060962;28;20388;-83
2022/07/16 03:39:53;;;;;;;0.10;0.10;;;;;;;;;;2063974;28;20030;-82
2022/07/16 03:41:12;;;;;;;0.10;0.10;;;;;;;;;;2051363;28;20484;-83
2022/07/16 03:42:31;;;;;;;0.22;0.20;;;;;;;;;;2049791;28;20031;-83
2022/07/16 03:43:50;;;;;;;1.98;0.20;;;;;;;;;;2056581;28;20493;-83
2022/07/16 03:45:09;;;;;;;1.45;0.25;;;;;;;;;;2058010;28;20034;-83
2022/07/16 03:46:29;;;;;;;0.20;0.20;;;;;;;;;;2063456;28;20444;-83
2022/07/16 03:47:50;;;;;;;0.20;0.20;;;;;;;;;;2055932;28;20038;-83
2022/07/16 03:49:09;;;;;;;0.10;0.10;;;;;;;;;;2055228;28;20034;-83
2022/07/16 03:50:28;;;;;;;2.45;0.10;;;;;;;;;;2054860;28;20085;-84
2022/07/16 03:51:47;;;;;;;0.20;0.20;;;;;;;;;;2056328;28;20038;-83
2022/07/16 03:53:06;;;;;;;0.20;0.10;;;;;;;;;;2061144;28;20034;-83
2022/07/16 03:54:25;;;;;;;1.40;0.25;;;;;;;;;;2053817;28;20035;-83
2022/07/16 03:55:43;;;;;;;0.52;0.13;;;;;;;;;;2054273;28;20030;-83
2022/07/16 03:57:02;;;;;;;0.77;0.20;;;;;;;;;;2053072;28;20034;-83
2022/07/16 03:58:21;;;;;;;0.13;0.10;;;;;;;;;;2058840;28;20026;-83
2022/07/16 03:59:40;;;;;;;0.28;0.17;;;;;;;;;;2064816;28;20105;-83
2022/07/16 04:00:58;;;;;;;1.13;0.20;;;;;;;;;;2061721;28;20030;-83
2022/07/16 04:02:17;;;;;;;0.20;0.15;;;;;;;;;;2062734;28;20031;-83
2022/07/16 04:03:37;;;;;;;0.30;0.15;;;;;;;;;;2063811;28;20026;-83
2022/07/16 04:04:56;;;;;;;0.20;0.20;;;;;;;;;;2055772;28;20031;-84
2022/07/16 04:06:15;;;;;;;0.20;0.10;;;;;;;;;;2060920;28;20018;-83
2022/07/16 04:07:33;;;;;;;0.10;0.10;;;;;;;;;;2063976;28;20042;-83
2022/07/16 04:08:52;;;;;;;0.65;0.08;;;;;;;;;;2062441;28;20388;-83
2022/07/16 04:10:11;;;;;;;0.38;0.20;;;;;;;;;;2055834;28;20524;-83
2022/07/16 04:11:30;;;;;;;0.10;0.10;;;;;;;;;;2061060;28;20031;-84
2022/07/16 04:12:49;;;;;;;0.10;0.03;;;;;;;;;;2064098;28;20113;-84
2022/07/16 04:14:08;;;;;;;0.00;0.00;;;;;;;;;;2064180;28;20030;-84
2022/07/16 04:15:27;;;;;;;1.58;0.20;;;;;;;;;;2062123;28;20145;-83
2022/07/16 04:16:46;;;;;;;0.17;0.10;;;;;;;;;;2055794;28;20106;-83
2022/07/16 04:18:06;;;;;;;0.17;0.08;;;;;;;;;;2061076;28;20038;-83
2022/07/16 04:19:25;;;;;;;0.20;0.15;;;;;;;;;;2065958;28;20030;-83
2022/07/16 04:20:44;;;;;;;1.30;0.10;;;;;;;;;;2066279;28;20030;-83
2022/07/16 04:22:03;;;;;;;1.02;0.10;;;;;;;;;;2063190;28;20109;-82
2022/07/16 04:23:22;;;;;;;0.10;0.10;;;;;;;;;;2057002;28;20023;-82
2022/07/16 04:24:41;;;;;;;0.08;0.00;;;;;;;;;;2061493;28;20034;-83
2022/07/16 04:26:03;;;;;;;0.10;0.10;;;;;;;;;;2057510;28;20026;-83
2022/07/16 04:27:22;;;;;;;0.20;0.10;;;;;;;;;;2051306;28;20046;-83
2022/07/16 04:28:41;;;;;;;1.17;0.20;;;;;;;;;;2052847;28;20455;-83
2022/07/16 04:30:00;;;;;;;0.10;0.10;;;;;;;;;;2052475;28;20026;-83
2022/07/16 04:31:19;;;;;;;0.40;0.10;;;;;;;;;;2059401;28;20031;-83
2022/07/16 04:32:39;;;;;;;0.85;0.20;;;;;;;;;;2062560;28;20193;-83
2022/07/16 04:33:58;;;;;;;1.05;0.15;;;;;;;;;;2061946;28;20027;-83
2022/07/16 04:35:17;;;;;;;0.13;0.10;;;;;;;;;;2060680;28;20070;-83
2022/07/16 04:36:35;;;;;;;0.20;0.20;;;;;;;;;;2056708;28;20555;-83
2022/07/16 04:37:54;;;;;;;1.77;0.10;;;;;;;;;;2061324;28;20333;-83
2022/07/16 04:39:13;;;;;;;0.70;0.25;;;;;;;;;;2063311;28;20026;-82
2022/07/16 04:40:32;;;;;;;0.52;0.28;;;;;;;;;;2054734;28;20106;-82
2022/07/16 04:41:51;;;;;;;0.45;0.45;;;;;;;;;;2057491;28;20508;-83
2022/07/16 04:43:09;;;;;;;0.65;0.22;;;;;;;;;;2058257;28;20035;-83
2022/07/16 04:44:28;;;;;;;0.32;0.13;;;;;;;;;;2054042;28;20031;-83
2022/07/16 04:45:47;;;;;;;0.40;0.30;;;;;;;;;;2059158;28;20026;-83
2022/07/16 04:47:09;;;;;;;0.55;0.20;;;;;;;;;;2057301;28;20042;-83
2022/07/16 04:48:28;;;;;;;0.45;0.10;;;;;;;;;;2059555;28;20019;-82
2022/07/16 04:49:47;;;;;;;0.32;0.20;;;;;;;;;;2057623;28;20019;-83
2022/07/16 04:51:16;;;;;;;1.63;0.20;;;;;;;;;;2061010;28;20034;-83
2022/07/16 04:52:34;;;;;;;0.10;0.10;;;;;;;;;;2056713;28;20057;-83
2022/07/16 04:53:53;;;;;;;0.93;0.10;;;;;;;;;;2061110;28;20066;-83
2022/07/16 04:55:18;;;;;;;0.40;0.10;;;;;;;;;;2063209;28;20053;-83
2022/07/16 04:56:37;;;;;;;1.25;0.15;;;;;;;;;;2057832;28;20027;-84
2022/07/16 04:57:56;;;;;;;0.22;0.10;;;;;;;;;;2053149;28;20030;-84
2022/07/16 04:59:15;;;;;;;0.10;0.10;;;;;;;;;;2054601;28;20018;-83
2022/07/16 05:00:34;;;;;;;0.10;0.10;;;;;;;;;;2052782;28;20023;-84
2022/07/16 05:02:56;;;;;;;0.50;0.00;;;;;;;;;;2060601;28;20400;-84
2022/07/16 05:03:33;;;;;;;0.43;0.20;;;;;;;;;;2055679;28;20043;-84
2022/07/16 05:04:52;;;;;;;0.03;0.03;;;;;;;;;;2063160;28;20026;-84
2022/07/16 05:06:11;;;;;;;0.80;0.10;;;;;;;;;;2056308;28;20030;-83
2022/07/16 05:07:30;;;;;;;0.80;0.10;;;;;;;;;;2059484;28;20034;-83
2022/07/16 05:08:49;;;;;;;0.22;0.10;;;;;;;;;;2056717;28;20027;-83
2022/07/16 05:10:11;;;;;;;0.63;0.10;;;;;;;;;;2054167;28;20026;-83
2022/07/16 05:11:30;;;;;;;0.20;0.20;;;;;;;;;;2062076;28;20026;-83
2022/07/16 05:12:49;;;;;;;0.25;0.20;;;;;;;;;;2063258;28;20047;-83
2022/07/16 05:14:07;;;;;;;0.35;0.17;;;;;;;;;;2063504;28;20031;-83
2022/07/16 05:15:28;;;;;;;0.20;0.20;;;;;;;;;;2055743;28;20046;-83
2022/07/16 05:16:48;;;;;;;0.08;0.08;;;;;;;;;;2061075;28;20026;-83
2022/07/16 05:18:08;;;;;;;0.28;0.13;;;;;;;;;;2062904;28;20046;-83
2022/07/16 05:19:27;;;;;;;0.22;0.20;;;;;;;;;;2063532;28;20030;-83
2022/07/16 05:21:04;;;;;;;0.95;0.10;;;;;;;;;;2062933;28;20038;-85
2022/07/16 05:22:23;;;;;;;0.52;0.20;;;;;;;;;;2055804;28;21475;-86
2022/07/16 05:23:42;;;;;;;0.50;0.20;;;;;;;;;;2060808;28;20035;-87
2022/07/16 05:25:01;;;;;;;0.30;0.20;;;;;;;;;;2061690;28;20034;-86
2022/07/16 05:26:21;;;;;;;0.32;0.10;;;;;;;;;;2054747;28;20499;-86
2022/07/16 05:27:40;;;;;;;0.10;0.10;;;;;;;;;;2040411;28;20051;-85
2022/07/16 05:28:58;;;;;;;0.15;0.10;;;;;;;;;;2048144;28;20117;-83
2022/07/16 05:30:17;;;;;;;1.45;0.25;;;;;;;;;;2053442;28;20023;-83
2022/07/16 05:31:41;;;;;;;0.38;0.20;;;;;;;;;;2047530;28;20031;-83
2022/07/16 05:33:04;;;;;;;0.98;0.30;;;;;;;;;;2052609;28;20083;-83
2022/07/16 05:34:23;;;;;;;0.13;0.13;;;;;;;;;;2055114;28;20038;-85
2022/07/16 05:35:45;;;;;;;0.10;0.10;;;;;;;;;;2046588;28;20027;-83
2022/07/16 05:37:04;;;;;;;0.28;0.10;;;;;;;;;;2052561;28;20397;-80
2022/07/16 05:38:23;;;;;;;0.43;0.43;;;;;;;;;;2056282;28;20034;-83
2022/07/16 05:39:44;;;;;;;0.13;0.10;;;;;;;;;;2047339;28;20032;-80
2022/07/16 05:41:03;;;;;;;0.10;0.10;;;;;;;;;;2045158;28;20023;-83
2022/07/16 05:42:22;;;;;;;0.75;0.20;;;;;;;;;;2043874;28;20063;-83
2022/07/16 05:43:41;;;;;;;0.15;0.10;;;;;;;;;;2044577;28;20411;-82
2022/07/16 05:45:28;;;;;;;0.17;0.10;;;;;;;;;;2053934;28;20106;-83
2022/07/16 05:46:49;;;;;;;0.10;0.10;;;;;;;;;;2055130;28;20073;-87
2022/07/16 05:50:08;;;;;;;0.43;0.20;;;;;;;;;;2058111;28;20034;-87
2022/07/16 05:51:27;;;;;;;2.08;0.10;;;;;;;;;;2054911;28;20038;-83
2022/07/16 05:52:46;;;;;;;0.38;0.22;;;;;;;;;;2047163;28;20544;-84
2022/07/16 05:54:11;;;;;;;0.25;0.10;;;;;;;;;;2053489;28;20030;-88
2022/07/16 05:55:30;;;;;;;0.17;0.10;;;;;;;;;;2048728;28;20039;-84
2022/07/16 05:56:51;;;;;;;0.10;0.10;;;;;;;;;;2053030;28;20022;-84
2022/07/16 05:58:11;;;;;;;0.40;0.22;;;;;;;;;;2047236;28;20428;-85
2022/07/16 05:59:30;;;;;;;0.68;0.20;;;;;;;;;;2047192;28;20126;-84
2022/07/16 06:00:49;;;;;;;0.80;0.20;;;;;;;;;;2051535;28;20023;-88
2022/07/16 06:02:08;;;;;;;0.15;0.10;;;;;;;;;;2057029;28;20285;-86
2022/07/16 06:03:27;;;;;;;0.10;0.10;;;;;;;;;;2047832;28;20106;-85
2022/07/16 06:04:46;;;;;;;0.10;0.10;;;;;;;;;;2048964;28;20035;-86
2022/07/16 06:06:05;;;;;;;0.15;0.10;;;;;;;;;;2047614;28;20066;-86
2022/07/16 06:07:24;;;;;;;0.52;0.15;;;;;;;;;;2050050;28;20027;-87
2022/07/16 06:08:46;;;;;;;0.30;0.10;;;;;;;;;;2046112;28;20023;-85
2022/07/16 06:10:08;;;;;;;0.32;0.10;;;;;;;;;;2045545;28;20022;-83
2022/07/16 06:11:26;;;;;;;0.10;0.10;;;;;;;;;;2048677;28;20102;-83
2022/07/16 06:12:45;;;;;;;0.47;0.10;;;;;;;;;;2053262;28;20429;-82
2022/07/16 06:14:07;;;;;;;0.77;0.20;;;;;;;;;;2047431;28;20024;-86
2022/07/16 06:15:26;;;;;;;0.43;0.20;;;;;;;;;;2044922;28;20047;-84
2022/07/16 06:16:45;;;;;;;0.10;0.10;;;;;;;;;;2044693;28;20862;-85
2022/07/16 06:18:04;;;;;;;0.25;0.10;;;;;;;;;;2041714;28;20031;-85
2022/07/16 06:19:23;;;;;;;0.45;0.20;;;;;;;;;;2051886;28;20384;-86
2022/07/16 06:20:45;;;;;;;0.10;0.10;;;;;;;;;;2048381;28;20024;-83
2022/07/16 06:22:04;;;;;;;0.52;0.10;;;;;;;;;;2051529;28;20035;-85
2022/07/16 06:23:23;;;;;;;1.42;0.10;;;;;;;;;;2047776;28;20028;-85
2022/07/16 06:24:41;;;;;;;0.45;0.10;;;;;;;;;;2043911;28;20032;-84
2022/07/16 06:26:01;;;;;;;0.10;0.10;;;;;;;;;;2051249;28;20034;-83
2022/07/16 06:27:20;;;;;;;0.47;0.20;;;;;;;;;;2056159;28;20404;-83
2022/07/16 06:28:39;;;;;;;0.32;0.10;;;;;;;;;;2055868;28;20030;-83
2022/07/16 06:30:02;;;;;;;0.20;0.10;;;;;;;;;;2047566;29;20114;-83
2022/07/16 06:31:21;;;;;;;0.10;0.10;;;;;;;;;;2046185;28;20043;-82
2022/07/16 06:32:43;;;;;;;0.10;0.10;;;;;;;;;;2053893;28;20035;-82
2022/07/16 06:34:02;;;;;;;0.55;0.30;;;;;;;;;;2055850;28;20027;-81
2022/07/16 06:35:21;;;;;;;0.10;0.10;;;;;;;;;;2056819;28;20460;-77
2022/07/16 06:36:43;;;;;;;0.77;0.10;;;;;;;;;;2047688;28;20023;-81
2022/07/16 06:38:03;;;;;;;1.98;0.30;;;;;;;;;;2052379;28;20094;-81
2022/07/16 06:39:29;;;;;;;0.45;0.38;;;;;;;;;;2047465;28;20035;-82
2022/07/16 06:40:51;;;;;;;1.95;0.20;;;;;;;;;;2054958;28;20101;-83
2022/07/16 06:42:10;;;;;;;0.77;0.15;;;;;;;;;;2047198;28;20031;-82
2022/07/16 06:43:29;;;;;;;0.10;0.10;;;;;;;;;;2043663;28;20102;-80
2022/07/16 06:44:47;;;;;;;0.20;0.20;;;;;;;;;;2044105;28;20099;-79
2022/07/16 06:46:07;;;;;;;0.28;0.17;;;;;;;;;;2043520;28;20719;-79
2022/07/16 06:47:26;;;;;;;0.20;0.10;;;;;;;;;;2053812;28;20501;-80
2022/07/16 06:48:45;;;;;;;0.90;0.20;;;;;;;;;;2055843;28;20287;-82
2022/07/16 06:50:06;;;;;;;0.13;0.00;;;;;;;;;;2055250;28;20074;-84
2022/07/16 06:51:25;;;;;;;0.75;0.10;;;;;;;;;;2056334;28;20035;-81
2022/07/16 06:52:44;;;;;;;1.35;0.45;;;;;;;;;;2048007;28;20031;-80
2022/07/16 06:54:03;;;;;;;0.10;0.10;;;;;;;;;;2045359;28;20027;-81
2022/07/16 06:55:22;;;;;;;0.30;0.20;;;;;;;;;;2045032;28;20047;-82
2022/07/16 06:56:40;;;;;;;0.40;0.20;;;;;;;;;;2053827;28;20030;-81
2022/07/16 06:57:59;;;;;;;0.45;0.20;;;;;;;;;;2057380;28;20054;-82
2022/07/16 06:59:18;;;;;;;0.10;0.10;;;;;;;;;;2057021;28;20031;-72
2022/07/16 07:00:37;;;;;;;0.45;0.10;;;;;;;;;;2056472;28;20035;-80
2022/07/16 07:01:56;;;;;;;0.50;0.10;;;;;;;;;;2045360;28;20449;-80
2022/07/16 07:03:18;;;;;;;0.10;0.10;;;;;;;;;;2040334;28;20429;-81
2022/07/16 07:04:37;;;;;;;0.10;0.10;;;;;;;;;;2051472;28;20493;-83
2022/07/16 07:05:56;;;;;;;0.20;0.13;;;;;;;;;;2056383;28;20034;-83
2022/07/16 07:07:15;;;;;;;0.10;0.10;;;;;;;;;;2057019;28;20396;-80
2022/07/16 07:08:35;;;;;;;0.17;0.10;;;;;;;;;;2047567;28;20036;-89
2022/07/16 07:09:53;;;;;;;0.20;0.20;;;;;;;;;;2045259;28;20110;-85
2022/07/16 07:11:13;;;;;;;0.45;0.10;;;;;;;;;;2044671;28;20039;-87
2022/07/16 07:12:35;;;;;;;0.03;0.03;;;;;;;;;;2051380;28;20031;-85
2022/07/16 07:13:53;;;;;;;0.38;0.20;;;;;;;;;;2046916;28;20524;-84
2022/07/16 07:15:12;;;;;;;0.93;0.20;;;;;;;;;;2053273;28;20488;-84
2022/07/16 07:16:31;;;;;;;1.00;0.20;;;;;;;;;;2055624;28;20160;-83
2022/07/16 07:17:51;;;;;;;0.60;0.10;;;;;;;;;;2055534;28;20468;-86
2022/07/16 07:19:10;;;;;;;0.70;0.30;;;;;;;;;;2056647;28;20449;-88
2022/07/16 07:20:29;;;;;;;0.57;0.10;;;;;;;;;;2048301;28;20065;-86
2022/07/16 07:21:49;;;;;;;0.38;0.10;;;;;;;;;;2053942;28;20023;-85
2022/07/16 07:23:11;;;;;;;0.30;0.20;;;;;;;;;;2057655;28;20389;-84
2022/07/16 07:24:30;;;;;;;0.17;0.10;;;;;;;;;;2044629;28;20058;-73
2022/07/16 07:25:49;;;;;;;0.17;0.10;;;;;;;;;;2044563;28;20491;-73
2022/07/16 07:27:08;;;;;;;1.45;0.47;;;;;;;;;;2056510;28;20141;-74
2022/07/16 07:28:28;;;;;;;2.78;0.20;;;;;;;;;;2055843;28;20113;-73
2022/07/16 07:29:47;;;;;;;1.65;0.30;;;;;;;;;;2061138;28;20026;-75
2022/07/16 07:31:06;;;;;;;0.40;0.32;;;;;;;;;;2065333;28;20364;-76
2022/07/16 07:32:25;;;;;;;0.30;0.10;;;;;;;;;;2063269;28;20057;-75
2022/07/16 07:33:44;;;;;;;0.70;0.10;;;;;;;;;;2055804;28;20055;-73
2022/07/16 07:35:06;;;;;;;0.30;0.10;;;;;;;;;;2053748;28;20079;-91
2022/07/16 07:36:25;;;;;;;0.10;0.10;;;;;;;;;;2061245;28;20022;-87
2022/07/16 07:37:44;;;;;;;0.20;0.20;;;;;;;;;;2056474;28;20571;-89
2022/07/16 07:39:03;;;;;;;4.10;0.20;;;;;;;;;;2060957;28;20483;-92
2022/07/16 07:40:22;;;;;;;0.10;0.10;;;;;;;;;;2064970;28;20042;-91
2022/07/16 07:41:41;;;;;;;1.13;0.20;;;;;;;;;;2054959;28;20027;-84
2022/07/16 07:43:00;;;;;;;0.10;0.10;;;;;;;;;;2055693;28;20019;-87
2022/07/16 07:44:19;;;;;;;0.50;0.15;;;;;;;;;;2062048;28;20380;-86
2022/07/16 07:45:38;;;;;;;0.15;0.10;;;;;;;;;;2064058;28;20022;-86
2022/07/16 07:46:57;;;;;;;0.10;0.10;;;;;;;;;;2056132;28;20031;-87
2022/07/16 07:48:17;;;;;;;0.55;0.20;;;;;;;;;;2062029;28;20395;-85
2022/07/16 07:49:36;;;;;;;0.10;0.10;;;;;;;;;;2064496;28;20030;-85
2022/07/16 07:50:55;;;;;;;0.10;0.10;;;;;;;;;;2055098;28;20481;-88
2022/07/16 07:52:13;;;;;;;1.35;0.10;;;;;;;;;;2052989;28;20042;-86
2022/07/16 07:53:34;;;;;;;0.20;0.20;;;;;;;;;;2059477;28;20591;-88
2022/07/16 07:54:53;;;;;;;0.28;0.00;;;;;;;;;;2063704;28;20562;-87
2022/07/16 07:56:12;;;;;;;1.70;0.30;;;;;;;;;;2064819;28;20022;-88
2022/07/16 07:57:31;;;;;;;0.10;0.10;;;;;;;;;;2056244;28;20140;-82
2022/07/16 07:58:50;;;;;;;0.35;0.10;;;;;;;;;;2061344;28;20022;-81
2022/07/16 08:00:09;;;;;;;1.20;0.03;;;;;;;;;;2053999;28;20027;-83
2022/07/16 08:01:28;;;;;;;0.32;0.10;;;;;;;;;;2060854;28;20022;-81
2022/07/16 08:02:47;;;;;;;0.45;0.10;;;;;;;;;;2054750;28;20444;-81
2022/07/16 08:04:06;;;;;;;0.30;0.30;;;;;;;;;;2061007;28;20030;-81